Time;durP1;ratioP1;P1;durP2;ratioP2;P2;SDS_P1;SDS_P2;PMS_P1;PMS_P2;Temp;Humidity;BMP_temperature;BMP_pressure;BME280_temperature;BME280_humidity;BME280_pressure;Samples;Min_cycle;Max_cycle;Signal;HPM_P1;HPM_P2
2023/03/05 00:02:26;;;;;;;2.55;0.95;;;;;;;;;;5027365;28;20065;-65
2023/03/05 00:04:56;;;;;;;2.10;0.73;;;;;;;;;;5030493;28;20041;-64
2023/03/05 00:07:26;;;;;;;4.00;0.70;;;;;;;;;;4995728;28;20057;-65
2023/03/05 00:10:02;;;;;;;3.03;1.00;;;;;;;;;;5026905;28;20045;-65
2023/03/05 00:12:33;;;;;;;3.92;1.13;;;;;;;;;;5027258;28;20057;-65
2023/03/05 00:15:02;;;;;;;4.70;1.20;;;;;;;;;;5025979;28;20053;-66
2023/03/05 00:17:32;;;;;;;3.35;1.63;;;;;;;;;;5041054;28;20072;-65
2023/03/05 00:20:02;;;;;;;2.90;1.13;;;;;;;;;;5008414;28;20057;-66
2023/03/05 00:22:34;;;;;;;5.05;0.93;;;;;;;;;;5008783;28;20069;-65
2023/03/05 00:25:05;;;;;;;3.65;1.90;;;;;;;;;;5024655;28;20132;-65
2023/03/05 00:27:35;;;;;;;3.25;1.60;;;;;;;;;;5028354;28;20053;-65
2023/03/05 00:30:05;;;;;;;3.88;1.20;;;;;;;;;;5029332;28;20042;-65
2023/03/05 00:32:36;;;;;;;1.80;0.82;;;;;;;;;;5045070;28;20061;-65
2023/03/05 00:35:07;;;;;;;1.70;0.73;;;;;;;;;;5028681;28;20057;-65
2023/03/05 00:37:37;;;;;;;2.40;0.63;;;;;;;;;;4969219;28;20525;-65
2023/03/05 00:40:08;;;;;;;2.65;0.70;;;;;;;;;;4969124;28;20081;-65
2023/03/05 00:42:38;;;;;;;4.65;0.70;;;;;;;;;;4969070;28;20633;-66
2023/03/05 00:45:09;;;;;;;3.03;0.88;;;;;;;;;;4991739;28;20051;-65
2023/03/05 00:47:39;;;;;;;6.55;0.82;;;;;;;;;;4956156;28;20195;-64
2023/03/05 00:50:12;;;;;;;3.38;0.90;;;;;;;;;;4972713;28;20057;-65
2023/03/05 00:52:45;;;;;;;4.93;0.70;;;;;;;;;;4958100;28;20054;-65
2023/03/05 00:55:15;;;;;;;3.10;0.70;;;;;;;;;;4940530;28;20062;-65
2023/03/05 00:57:45;;;;;;;3.60;0.63;;;;;;;;;;4969765;28;20062;-66
2023/03/05 01:00:15;;;;;;;1.65;0.63;;;;;;;;;;4968868;28;20055;-65
2023/03/05 01:02:45;;;;;;;6.80;0.80;;;;;;;;;;4984996;28;20685;-65
2023/03/05 01:05:15;;;;;;;5.07;0.75;;;;;;;;;;4984951;28;20057;-64
2023/03/05 01:07:45;;;;;;;2.53;0.63;;;;;;;;;;4987821;28;20061;-65
2023/03/05 01:10:15;;;;;;;3.15;0.90;;;;;;;;;;4988261;28;20525;-65
2023/03/05 01:12:44;;;;;;;1.40;0.65;;;;;;;;;;4988277;28;20522;-65
2023/03/05 01:15:14;;;;;;;3.13;0.73;;;;;;;;;;5018010;28;20111;-65
2023/03/05 01:17:47;;;;;;;7.80;1.15;;;;;;;;;;5028012;28;20068;-65
2023/03/05 01:20:21;;;;;;;2.75;0.73;;;;;;;;;;5023615;28;20060;-66
2023/03/05 01:22:51;;;;;;;2.83;0.93;;;;;;;;;;5024186;28;20421;-66
2023/03/05 01:25:21;;;;;;;2.95;0.93;;;;;;;;;;5023534;28;20061;-65
2023/03/05 01:27:52;;;;;;;4.25;0.95;;;;;;;;;;5002946;28;20064;-65
2023/03/05 01:30:22;;;;;;;2.15;0.70;;;;;;;;;;5006048;28;20066;-65
2023/03/05 01:32:52;;;;;;;1.52;0.80;;;;;;;;;;5027757;28;20053;-65
2023/03/05 01:35:24;;;;;;;3.25;0.82;;;;;;;;;;5027567;28;20061;-65
2023/03/05 01:37:55;;;;;;;3.60;0.93;;;;;;;;;;4993986;28;20068;-64
2023/03/05 01:40:28;;;;;;;4.05;0.75;;;;;;;;;;5025822;28;20493;-65
2023/03/05 01:43:23;;;;;;;2.35;0.77;;;;;;;;;;4964633;28;20050;-65
2023/03/05 01:46:22;;;;;;;4.70;0.85;;;;;;;;;;4964864;28;20074;-64
2023/03/05 01:49:09;;;;;;;3.28;0.75;;;;;;;;;;4947737;28;20059;-65
2023/03/05 01:51:58;;;;;;;6.45;0.77;;;;;;;;;;4930449;29;20055;-64
2023/03/05 01:54:33;;;;;;;3.13;0.80;;;;;;;;;;4933504;29;20761;-65
2023/03/05 01:57:11;;;;;;;3.95;0.73;;;;;;;;;;4968460;28;20055;-64
2023/03/05 01:59:43;;;;;;;3.47;0.63;;;;;;;;;;4936961;28;20584;-64
2023/03/05 02:02:13;;;;;;;3.92;0.90;;;;;;;;;;4969712;28;20510;-65
2023/03/05 02:04:53;;;;;;;8.23;1.17;;;;;;;;;;4986897;28;20656;-65
2023/03/05 02:07:23;;;;;;;3.38;0.73;;;;;;;;;;4964396;28;20050;-64
2023/03/05 02:09:53;;;;;;;7.15;1.42;;;;;;;;;;4955904;28;20059;-65
2023/03/05 02:12:23;;;;;;;6.75;1.00;;;;;;;;;;4925682;29;20476;-64
2023/03/05 02:14:58;;;;;;;2.67;0.88;;;;;;;;;;4960075;28;20066;-64
2023/03/05 02:17:28;;;;;;;1.25;0.70;;;;;;;;;;4949238;28;20055;-64
2023/03/05 02:20:08;;;;;;;3.47;0.70;;;;;;;;;;4949155;28;20411;-64
2023/03/05 02:22:38;;;;;;;2.58;0.75;;;;;;;;;;4949318;28;20059;-64
2023/03/05 02:25:15;;;;;;;5.03;0.80;;;;;;;;;;4930793;28;20120;-65
2023/03/05 02:28:23;;;;;;;4.00;0.80;;;;;;;;;;4948206;29;20492;-65
2023/03/05 02:30:53;;;;;;;4.10;0.73;;;;;;;;;;4949215;29;20419;-65
2023/03/05 02:33:23;;;;;;;5.15;0.65;;;;;;;;;;4903029;29;20054;-65
2023/03/05 02:35:53;;;;;;;2.35;0.68;;;;;;;;;;4952819;28;20062;-65
2023/03/05 02:38:23;;;;;;;3.20;0.63;;;;;;;;;;4953011;28;20070;-64
2023/03/05 02:40:53;;;;;;;1.27;0.60;;;;;;;;;;4938929;28;20074;-65
2023/03/05 02:43:23;;;;;;;5.45;0.80;;;;;;;;;;4969653;28;20142;-65
2023/03/05 02:45:53;;;;;;;5.15;0.85;;;;;;;;;;4984342;28;20061;-64
2023/03/05 02:48:25;;;;;;;1.58;0.73;;;;;;;;;;4982913;28;20053;-65
2023/03/05 02:50:55;;;;;;;4.13;0.82;;;;;;;;;;4987234;28;20901;-65
2023/03/05 02:53:25;;;;;;;2.47;0.82;;;;;;;;;;4987055;28;20069;-66
2023/03/05 02:55:56;;;;;;;3.88;0.63;;;;;;;;;;5002399;28;20051;-64
2023/03/05 02:58:27;;;;;;;4.03;0.70;;;;;;;;;;4955535;28;20065;-64
2023/03/05 03:00:57;;;;;;;4.40;0.65;;;;;;;;;;4933180;29;20063;-64
2023/03/05 03:03:27;;;;;;;1.90;0.85;;;;;;;;;;4932631;29;20753;-64
2023/03/05 03:05:57;;;;;;;4.05;1.52;;;;;;;;;;4929931;29;20455;-65
2023/03/05 03:08:27;;;;;;;4.47;0.73;;;;;;;;;;4945041;29;20067;-65
2023/03/05 03:11:04;;;;;;;3.13;1.00;;;;;;;;;;4928696;29;20060;-64
2023/03/05 03:13:34;;;;;;;2.33;1.25;;;;;;;;;;4929326;29;20204;-65
2023/03/05 03:16:12;;;;;;;3.65;0.90;;;;;;;;;;4910858;29;20067;-65
2023/03/05 03:18:43;;;;;;;1.90;1.05;;;;;;;;;;4945405;29;20505;-64
2023/03/05 03:21:21;;;;;;;6.70;0.75;;;;;;;;;;4932732;29;20054;-65
2023/03/05 03:23:51;;;;;;;4.32;0.90;;;;;;;;;;4930315;29;20406;-66
2023/03/05 03:26:20;;;;;;;4.63;0.75;;;;;;;;;;4902571;29;20472;-65
2023/03/05 03:28:50;;;;;;;3.30;0.70;;;;;;;;;;4921232;29;20063;-64
2023/03/05 03:31:20;;;;;;;3.22;0.82;;;;;;;;;;4928937;29;20587;-65
2023/03/05 03:33:50;;;;;;;4.47;0.82;;;;;;;;;;4939382;28;20087;-65
2023/03/05 03:36:20;;;;;;;6.55;0.93;;;;;;;;;;4924007;29;20051;-64
2023/03/05 03:38:50;;;;;;;3.80;0.68;;;;;;;;;;4969359;28;20050;-65
2023/03/05 03:41:20;;;;;;;1.98;0.88;;;;;;;;;;4970772;28;20067;-64
2023/03/05 03:43:49;;;;;;;1.33;0.73;;;;;;;;;;4971218;28;20139;-65
2023/03/05 03:46:19;;;;;;;2.22;0.73;;;;;;;;;;4971076;28;20074;-64
2023/03/05 03:48:50;;;;;;;5.70;1.00;;;;;;;;;;4952962;28;20546;-65
2023/03/05 03:51:20;;;;;;;2.55;1.08;;;;;;;;;;4929282;28;20398;-65
2023/03/05 03:53:50;;;;;;;3.50;0.85;;;;;;;;;;4970054;28;20066;-65
2023/03/05 03:56:19;;;;;;;2.20;0.70;;;;;;;;;;5025405;28;20092;-64
2023/03/05 03:58:53;;;;;;;3.85;0.77;;;;;;;;;;5025649;28;20057;-65
2023/03/05 04:01:23;;;;;;;5.43;1.10;;;;;;;;;;5029227;28;20045;-64
2023/03/05 04:03:52;;;;;;;3.28;1.00;;;;;;;;;;5029674;28;20069;-65
2023/03/05 04:06:23;;;;;;;2.25;0.85;;;;;;;;;;5029649;28;20053;-64
2023/03/05 04:08:53;;;;;;;1.65;0.80;;;;;;;;;;5029577;28;20127;-64
2023/03/05 04:11:22;;;;;;;1.88;0.88;;;;;;;;;;5028675;28;20124;-65
2023/03/05 04:13:52;;;;;;;5.68;0.65;;;;;;;;;;5045474;28;20052;-64
2023/03/05 04:16:22;;;;;;;3.00;0.90;;;;;;;;;;5045287;28;20053;-64
2023/03/05 04:18:53;;;;;;;2.63;0.80;;;;;;;;;;5045172;28;20064;-64
2023/03/05 04:21:23;;;;;;;6.22;0.70;;;;;;;;;;5062101;28;20057;-64
2023/03/05 04:23:52;;;;;;;1.80;0.85;;;;;;;;;;5048689;28;20053;-64
2023/03/05 04:26:22;;;;;;;1.90;0.73;;;;;;;;;;5048639;28;20064;-64
2023/03/05 04:28:54;;;;;;;3.13;0.98;;;;;;;;;;5048588;28;20045;-65
2023/03/05 04:31:23;;;;;;;2.40;1.08;;;;;;;;;;5048526;28;20057;-64
2023/03/05 04:33:53;;;;;;;2.08;0.85;;;;;;;;;;5044699;28;20116;-65
2023/03/05 04:36:23;;;;;;;4.00;0.80;;;;;;;;;;5060887;28;20524;-64
2023/03/05 04:38:53;;;;;;;2.42;1.48;;;;;;;;;;5044961;28;20583;-64
2023/03/05 04:41:23;;;;;;;3.10;0.90;;;;;;;;;;5044314;28;20057;-64
2023/03/05 04:43:53;;;;;;;3.03;1.00;;;;;;;;;;5013145;28;20075;-65
2023/03/05 04:46:23;;;;;;;3.08;1.00;;;;;;;;;;5048630;28;20049;-65
2023/03/05 04:48:54;;;;;;;5.05;0.90;;;;;;;;;;5048064;28;20045;-64
2023/03/05 04:51:24;;;;;;;2.88;0.82;;;;;;;;;;4996429;28;20050;-64
2023/03/05 04:53:54;;;;;;;2.85;1.38;;;;;;;;;;5028488;28;20053;-64
2023/03/05 04:56:23;;;;;;;5.75;0.93;;;;;;;;;;5027640;28;20053;-64
2023/03/05 04:58:53;;;;;;;4.28;0.82;;;;;;;;;;5008400;28;20559;-64
2023/03/05 05:01:23;;;;;;;3.92;0.90;;;;;;;;;;5008261;28;20515;-65
2023/03/05 05:03:52;;;;;;;1.35;0.70;;;;;;;;;;5027483;28;20053;-65
2023/03/05 05:06:22;;;;;;;3.65;0.85;;;;;;;;;;5029755;28;20543;-66
2023/03/05 05:08:52;;;;;;;8.10;1.05;;;;;;;;;;5028308;28;20046;-64
2023/03/05 05:11:22;;;;;;;3.33;0.93;;;;;;;;;;4996218;28;20061;-64
2023/03/05 05:13:51;;;;;;;4.10;0.93;;;;;;;;;;5030876;28;20603;-65
2023/03/05 05:16:21;;;;;;;8.63;1.50;;;;;;;;;;5028079;28;20057;-64
2023/03/05 05:18:51;;;;;;;2.58;0.90;;;;;;;;;;5027194;28;20405;-65
2023/03/05 05:21:21;;;;;;;4.45;0.98;;;;;;;;;;5074257;28;20057;-65
2023/03/05 05:23:51;;;;;;;2.53;0.90;;;;;;;;;;5041348;28;20053;-65
2023/03/05 05:26:21;;;;;;;5.70;1.02;;;;;;;;;;5026774;28;20405;-65
2023/03/05 05:28:51;;;;;;;2.10;0.90;;;;;;;;;;5030255;28;20052;-65
2023/03/05 05:31:21;;;;;;;3.28;0.80;;;;;;;;;;5030830;28;20052;-64
2023/03/05 05:33:51;;;;;;;5.15;0.82;;;;;;;;;;5030446;28;20048;-64
2023/03/05 05:36:21;;;;;;;6.82;1.23;;;;;;;;;;4995548;28;20084;-64
2023/03/05 05:38:51;;;;;;;3.20;0.90;;;;;;;;;;5007695;28;20073;-64
2023/03/05 05:41:20;;;;;;;1.35;0.63;;;;;;;;;;5040812;28;20072;-64
2023/03/05 05:43:50;;;;;;;3.58;1.17;;;;;;;;;;5026455;28;20049;-65
2023/03/05 05:46:21;;;;;;;7.20;1.23;;;;;;;;;;5026484;28;20049;-64
2023/03/05 05:48:51;;;;;;;4.88;0.77;;;;;;;;;;5060677;28;20080;-65
2023/03/05 05:51:22;;;;;;;4.40;0.68;;;;;;;;;;4998168;28;20053;-64
2023/03/05 05:53:53;;;;;;;1.90;0.98;;;;;;;;;;5014299;28;20516;-64
2023/03/05 05:56:23;;;;;;;3.58;0.75;;;;;;;;;;5047785;28;20051;-65
2023/03/05 05:58:53;;;;;;;4.22;0.80;;;;;;;;;;5013089;28;20646;-64
2023/03/05 06:01:27;;;;;;;3.72;0.80;;;;;;;;;;5043288;28;20065;-64
2023/03/05 06:03:57;;;;;;;2.78;0.90;;;;;;;;;;5043323;28;20073;-64
2023/03/05 06:06:28;;;;;;;1.75;0.90;;;;;;;;;;5010322;28;20519;-64
2023/03/05 06:08:58;;;;;;;3.20;0.77;;;;;;;;;;5009675;28;20057;-64
2023/03/05 06:11:29;;;;;;;3.85;0.77;;;;;;;;;;5046390;28;20053;-65
2023/03/05 06:14:01;;;;;;;2.38;0.70;;;;;;;;;;5047468;28;20052;-64
2023/03/05 06:16:31;;;;;;;4.15;0.80;;;;;;;;;;5047449;28;20053;-64
2023/03/05 06:19:03;;;;;;;4.55;1.27;;;;;;;;;;5027329;28;20677;-64
2023/03/05 06:21:33;;;;;;;4.57;1.42;;;;;;;;;;5024675;28;20053;-64
2023/03/05 06:24:03;;;;;;;2.47;0.75;;;;;;;;;;4989718;28;20063;-65
2023/03/05 06:26:33;;;;;;;7.10;1.20;;;;;;;;;;4964402;28;20054;-64
2023/03/05 06:29:03;;;;;;;3.17;0.90;;;;;;;;;;5003024;28;20077;-64
2023/03/05 06:31:33;;;;;;;3.50;0.93;;;;;;;;;;4987223;28;20061;-65
2023/03/05 06:34:04;;;;;;;4.03;0.77;;;;;;;;;;5007772;28;20046;-65
2023/03/05 06:36:35;;;;;;;6.60;0.80;;;;;;;;;;5007699;28;20065;-64
2023/03/05 06:39:05;;;;;;;3.20;0.80;;;;;;;;;;5007094;28;20565;-65
2023/03/05 06:41:35;;;;;;;3.55;0.98;;;;;;;;;;5007327;28;20046;-64
2023/03/05 06:44:05;;;;;;;8.23;1.10;;;;;;;;;;4987384;28;20070;-65
2023/03/05 06:46:39;;;;;;;6.53;1.10;;;;;;;;;;5003042;28;20077;-65
2023/03/05 06:49:10;;;;;;;3.63;1.00;;;;;;;;;;5003450;28;20608;-65
2023/03/05 06:51:41;;;;;;;1.58;0.73;;;;;;;;;;4955143;28;20066;-64
2023/03/05 06:54:14;;;;;;;2.95;1.05;;;;;;;;;;5037558;28;20409;-65
2023/03/05 06:56:45;;;;;;;4.47;1.00;;;;;;;;;;5021617;28;20057;-65
2023/03/05 06:59:16;;;;;;;2.70;1.10;;;;;;;;;;5046993;28;20049;-64
2023/03/05 07:01:47;;;;;;;6.47;1.00;;;;;;;;;;5014554;28;20053;-64
2023/03/05 07:04:17;;;;;;;4.57;1.00;;;;;;;;;;5045153;28;20578;-64
2023/03/05 07:06:47;;;;;;;1.42;0.73;;;;;;;;;;5043164;28;20071;-65
2023/03/05 07:09:16;;;;;;;1.92;0.90;;;;;;;;;;5042267;28;20429;-64
2023/03/05 07:11:46;;;;;;;4.18;0.73;;;;;;;;;;5045520;28;20059;-65
2023/03/05 07:14:16;;;;;;;1.98;1.00;;;;;;;;;;5046363;28;20053;-65
2023/03/05 07:16:46;;;;;;;7.20;1.27;;;;;;;;;;5049453;28;20053;-65
2023/03/05 07:19:16;;;;;;;5.40;0.82;;;;;;;;;;5041601;28;20532;-64
2023/03/05 07:21:46;;;;;;;4.38;0.90;;;;;;;;;;5032907;28;20052;-64
2023/03/05 07:24:16;;;;;;;1.85;1.00;;;;;;;;;;5032380;28;20409;-64
2023/03/05 07:26:46;;;;;;;5.35;1.05;;;;;;;;;;5011371;28;20073;-65
2023/03/05 07:29:16;;;;;;;5.35;1.10;;;;;;;;;;5010015;28;20922;-67
2023/03/05 07:31:46;;;;;;;5.65;1.00;;;;;;;;;;5029728;28;20408;-64
2023/03/05 07:34:16;;;;;;;8.82;1.10;;;;;;;;;;5029344;28;20812;-64
2023/03/05 07:36:49;;;;;;;6.32;1.00;;;;;;;;;;5029660;28;20049;-64
2023/03/05 07:39:18;;;;;;;2.85;1.08;;;;;;;;;;5032124;28;20057;-65
2023/03/05 07:41:50;;;;;;;5.13;1.17;;;;;;;;;;5032841;28;20053;-64
2023/03/05 07:44:28;;;;;;;2.42;1.10;;;;;;;;;;5034850;28;20053;-64
2023/03/05 07:46:58;;;;;;;2.85;0.90;;;;;;;;;;5049308;28;20425;-64
2023/03/05 07:49:27;;;;;;;3.92;1.10;;;;;;;;;;5045693;28;20071;-65
2023/03/05 07:51:57;;;;;;;2.30;0.93;;;;;;;;;;5045447;28;20451;-65
2023/03/05 07:54:27;;;;;;;3.60;1.20;;;;;;;;;;4996516;28;20060;-64
2023/03/05 07:56:57;;;;;;;3.60;1.13;;;;;;;;;;5012490;28;20071;-65
2023/03/05 07:59:26;;;;;;;2.35;1.23;;;;;;;;;;5047515;28;20049;-64
2023/03/05 08:01:58;;;;;;;2.45;0.88;;;;;;;;;;5049504;28;20065;-64
2023/03/05 08:04:30;;;;;;;3.50;1.10;;;;;;;;;;5032553;28;20075;-64
2023/03/05 08:07:00;;;;;;;;;;;;;;;;;;5049619;28;20051;-65
2023/03/05 08:09:29;;;;;;;2.97;0.93;;;;;;;;;;5047633;28;19932;-64
2023/03/05 08:11:59;;;;;;;2.50;0.82;;;;;;;;;;5012270;28;20060;-65
2023/03/05 08:14:31;;;;;;;2.83;1.05;;;;;;;;;;5045252;28;20052;-65
2023/03/05 08:17:00;;;;;;;2.08;0.88;;;;;;;;;;5045103;28;20067;-64
2023/03/05 08:19:31;;;;;;;2.72;0.88;;;;;;;;;;5045373;28;20052;-65
2023/03/05 08:22:01;;;;;;;5.22;1.20;;;;;;;;;;5039644;28;20410;-64
2023/03/05 08:24:30;;;;;;;2.50;1.00;;;;;;;;;;5031692;28;20057;-64
2023/03/05 08:27:00;;;;;;;4.13;1.13;;;;;;;;;;5013148;28;20084;-65
2023/03/05 08:29:30;;;;;;;2.05;0.95;;;;;;;;;;4980325;28;21164;-64
2023/03/05 08:31:59;;;;;;;4.53;0.98;;;;;;;;;;5028931;28;20521;-65
2023/03/05 08:34:30;;;;;;;2.25;1.00;;;;;;;;;;5028118;28;20175;-64
2023/03/05 08:37:00;;;;;;;4.18;1.00;;;;;;;;;;5024852;28;20417;-65
2023/03/05 08:39:31;;;;;;;3.80;1.00;;;;;;;;;;5025426;28;20048;-64
2023/03/05 08:42:02;;;;;;;5.50;1.10;;;;;;;;;;5008986;28;20053;-65
2023/03/05 08:44:31;;;;;;;7.43;1.25;;;;;;;;;;5031489;28;20401;-65
2023/03/05 08:47:01;;;;;;;3.38;0.88;;;;;;;;;;5029006;28;20061;-64
2023/03/05 08:49:31;;;;;;;4.93;1.13;;;;;;;;;;5031726;28;20049;-64
2023/03/05 08:52:00;;;;;;;4.05;1.13;;;;;;;;;;5030655;28;20050;-65
2023/03/05 08:54:30;;;;;;;3.40;1.05;;;;;;;;;;5008535;28;20158;-65
2023/03/05 08:57:00;;;;;;;4.05;0.90;;;;;;;;;;5008668;28;20473;-65
2023/03/05 08:59:30;;;;;;;1.90;1.05;;;;;;;;;;5027552;28;20068;-64
2023/03/05 09:02:01;;;;;;;4.68;1.02;;;;;;;;;;5027583;28;20049;-65
2023/03/05 09:04:31;;;;;;;3.50;1.17;;;;;;;;;;4994003;28;20049;-64
2023/03/05 09:07:00;;;;;;;4.90;1.10;;;;;;;;;;5011640;28;20169;-64
2023/03/05 09:09:31;;;;;;;7.72;1.05;;;;;;;;;;5028683;28;20057;-64
2023/03/05 09:12:02;;;;;;;7.72;1.30;;;;;;;;;;5044357;28;20064;-65
2023/03/05 09:14:34;;;;;;;2.25;1.10;;;;;;;;;;5026792;28;20065;-65
2023/03/05 09:17:03;;;;;;;3.97;1.00;;;;;;;;;;5024179;28;20054;-65
2023/03/05 09:19:33;;;;;;;3.67;1.00;;;;;;;;;;5040107;28;20068;-65
2023/03/05 09:22:03;;;;;;;5.85;0.93;;;;;;;;;;5023438;28;20049;-65
2023/03/05 09:24:33;;;;;;;9.35;1.13;;;;;;;;;;5023457;28;20057;-64
2023/03/05 09:27:05;;;;;;;5.45;1.30;;;;;;;;;;4994587;28;20061;-65
2023/03/05 09:29:34;;;;;;;4.60;0.95;;;;;;;;;;5027544;28;20053;-64
2023/03/05 09:32:05;;;;;;;6.15;1.45;;;;;;;;;;5028138;28;20065;-64
2023/03/05 09:34:35;;;;;;;2.88;1.10;;;;;;;;;;5008184;28;20383;-65
2023/03/05 09:37:04;;;;;;;4.88;1.40;;;;;;;;;;5004930;28;20513;-65
2023/03/05 09:39:34;;;;;;;6.55;1.15;;;;;;;;;;5004154;28;20081;-64
2023/03/05 09:42:33;;;;;;;4.70;1.08;;;;;;;;;;5004153;28;20713;-65
2023/03/05 09:45:16;;;;;;;6.03;1.02;;;;;;;;;;5000828;28;20540;-64
2023/03/05 09:47:55;;;;;;;3.40;1.25;;;;;;;;;;4985542;28;20101;-65
2023/03/05 09:50:41;;;;;;;2.90;1.20;;;;;;;;;;4972902;28;20403;-64
2023/03/05 09:53:39;;;;;;;3.03;1.23;;;;;;;;;;4988487;28;20058;-64
2023/03/05 09:56:10;;;;;;;;;;;;;;;;;;4988925;28;20046;-65
2023/03/05 09:58:48;;;;;;;5.22;1.23;;;;;;;;;;4985250;28;19925;-65
2023/03/05 10:01:26;;;;;;;3.00;1.25;;;;;;;;;;4936163;28;20062;-64
2023/03/05 10:04:19;;;;;;;6.60;1.58;;;;;;;;;;4984293;28;20761;-65
2023/03/05 10:07:03;;;;;;;4.05;1.15;;;;;;;;;;4984121;28;20077;-65
2023/03/05 10:09:58;;;;;;;1.88;0.98;;;;;;;;;;4985979;28;20054;-64
2023/03/05 10:12:44;;;;;;;4.38;1.13;;;;;;;;;;4958762;28;20058;-64
2023/03/05 10:15:18;;;;;;;3.50;1.23;;;;;;;;;;4959291;28;20069;-64
2023/03/05 10:18:16;;;;;;;7.80;0.98;;;;;;;;;;5007847;28;20080;-65
2023/03/05 10:20:58;;;;;;;3.13;1.50;;;;;;;;;;4965523;28;20551;-64
2023/03/05 10:23:33;;;;;;;7.93;1.30;;;;;;;;;;4964646;28;20805;-65
2023/03/05 10:26:16;;;;;;;5.63;1.33;;;;;;;;;;4972965;28;20050;-65
2023/03/05 10:29:07;;;;;;;5.22;1.73;;;;;;;;;;4964186;28;20063;-65
2023/03/05 10:32:16;;;;;;;7.75;1.40;;;;;;;;;;4918281;28;20200;-65
2023/03/05 10:35:04;;;;;;;7.55;1.83;;;;;;;;;;4927926;29;20078;-65
2023/03/05 10:37:49;;;;;;;3.15;1.38;;;;;;;;;;4919940;29;20292;-65
2023/03/05 10:40:39;;;;;;;4.47;1.40;;;;;;;;;;4919664;29;20068;-66
2023/03/05 10:43:41;;;;;;;3.05;1.58;;;;;;;;;;4932275;29;20442;-65
2023/03/05 10:46:16;;;;;;;5.20;2.00;;;;;;;;;;4934769;28;20070;-65
2023/03/05 10:48:49;;;;;;;2.63;1.50;;;;;;;;;;4892634;29;20051;-65
2023/03/05 10:51:34;;;;;;;2.75;1.13;;;;;;;;;;4939559;29;20071;-65
2023/03/05 10:54:08;;;;;;;4.28;1.20;;;;;;;;;;4942792;29;20419;-66
2023/03/05 10:56:38;;;;;;;2.08;1.00;;;;;;;;;;4940902;29;20063;-66
2023/03/05 10:59:08;;;;;;;1.20;0.90;;;;;;;;;;4936744;29;20808;-65
2023/03/05 11:01:38;;;;;;;3.20;1.08;;;;;;;;;;4916204;29;20476;-66
2023/03/05 11:04:31;;;;;;;2.55;1.13;;;;;;;;;;4922941;29;20052;-66
2023/03/05 11:07:14;;;;;;;3.17;1.10;;;;;;;;;;4929274;29;20047;-65
2023/03/05 11:10:02;;;;;;;2.50;0.85;;;;;;;;;;4929549;29;20059;-65
2023/03/05 11:12:37;;;;;;;3.50;0.90;;;;;;;;;;4960743;28;20459;-65
2023/03/05 11:15:13;;;;;;;3.60;1.10;;;;;;;;;;4985664;28;20062;-65
2023/03/05 11:18:02;;;;;;;7.57;1.10;;;;;;;;;;4991193;28;20054;-65
2023/03/05 11:20:36;;;;;;;2.00;1.00;;;;;;;;;;4971169;28;20553;-65
2023/03/05 11:23:06;;;;;;;1.90;1.00;;;;;;;;;;4971705;28;20062;-65
2023/03/05 11:25:50;;;;;;;1.00;0.70;;;;;;;;;;4968515;28;20050;-66
2023/03/05 11:28:41;;;;;;;2.53;1.10;;;;;;;;;;4967021;28;20090;-65
2023/03/05 11:31:20;;;;;;;4.28;1.25;;;;;;;;;;4862751;29;20114;-66
2023/03/05 11:34:07;;;;;;;2.70;0.98;;;;;;;;;;4878011;29;20075;-66
2023/03/05 11:36:39;;;;;;;1.80;0.93;;;;;;;;;;4919606;29;20067;-65
2023/03/05 11:39:15;;;;;;;5.75;1.10;;;;;;;;;;4932667;29;20063;-65
2023/03/05 11:42:03;;;;;;;4.43;0.75;;;;;;;;;;4947936;29;20063;-66
2023/03/05 11:44:55;;;;;;;1.42;0.80;;;;;;;;;;4933111;29;20059;-66
2023/03/05 11:47:28;;;;;;;1.17;0.77;;;;;;;;;;4929677;29;20064;-65
2023/03/05 11:50:22;;;;;;;3.17;1.20;;;;;;;;;;4934483;28;20070;-65
2023/03/05 11:53:00;;;;;;;3.30;1.52;;;;;;;;;;4917828;29;20774;-65
2023/03/05 11:55:39;;;;;;;3.00;1.15;;;;;;;;;;4905162;29;20064;-66
2023/03/05 11:58:40;;;;;;;3.55;0.93;;;;;;;;;;4910219;29;20114;-65
2023/03/05 12:01:17;;;;;;;3.83;1.23;;;;;;;;;;4916013;29;20060;-65
2023/03/05 12:03:48;;;;;;;4.28;1.20;;;;;;;;;;4934539;29;20060;-66
2023/03/05 12:06:48;;;;;;;3.45;1.77;;;;;;;;;;4931627;29;20078;-65
2023/03/05 12:09:46;;;;;;;1.80;1.27;;;;;;;;;;4961383;28;20057;-65
2023/03/05 12:12:54;;;;;;;2.83;1.52;;;;;;;;;;4949936;28;20067;-66
2023/03/05 12:16:03;;;;;;;3.33;1.60;;;;;;;;;;4947392;28;20512;-65
2023/03/05 12:18:51;;;;;;;1.98;1.33;;;;;;;;;;4927865;29;20067;-66
2023/03/05 12:21:36;;;;;;;6.47;1.35;;;;;;;;;;4967783;28;20057;-65
2023/03/05 12:24:25;;;;;;;2.00;1.10;;;;;;;;;;4970008;28;20074;-65
2023/03/05 12:27:08;;;;;;;2.17;0.88;;;;;;;;;;4969916;28;20065;-65
2023/03/05 12:29:39;;;;;;;2.88;0.85;;;;;;;;;;4963512;28;20074;-66
2023/03/05 12:32:34;;;;;;;4.75;0.88;;;;;;;;;;4915136;29;20059;-66
2023/03/05 12:35:05;;;;;;;1.20;0.88;;;;;;;;;;4909424;29;20055;-66
2023/03/05 12:37:34;;;;;;;2.75;1.45;;;;;;;;;;4953362;28;20061;-67
2023/03/05 12:40:19;;;;;;;2.80;0.85;;;;;;;;;;4982285;28;20054;-66
2023/03/05 12:42:49;;;;;;;2.45;0.73;;;;;;;;;;4984045;28;20058;-67
2023/03/05 12:45:22;;;;;;;0.85;0.52;;;;;;;;;;4980234;28;20061;-67
2023/03/05 12:47:55;;;;;;;0.82;0.50;;;;;;;;;;4937312;28;20050;-66
2023/03/05 12:50:28;;;;;;;1.10;0.70;;;;;;;;;;4922558;28;20682;-65
2023/03/05 12:53:03;;;;;;;1.90;0.88;;;;;;;;;;4966801;28;20059;-66
2023/03/05 12:55:44;;;;;;;2.28;0.80;;;;;;;;;;4960629;28;20069;-66
2023/03/05 12:58:23;;;;;;;1.63;1.00;;;;;;;;;;4972835;28;20414;-65
2023/03/05 13:01:04;;;;;;;3.40;1.50;;;;;;;;;;5008049;28;20038;-66
2023/03/05 13:03:39;;;;;;;1.95;0.95;;;;;;;;;;5009147;28;20498;-65
2023/03/05 13:06:24;;;;;;;1.48;0.70;;;;;;;;;;5042695;28;20406;-67
2023/03/05 13:09:06;;;;;;;1.85;1.15;;;;;;;;;;5024459;28;20058;-66
2023/03/05 13:11:38;;;;;;;2.78;1.63;;;;;;;;;;5011128;28;20053;-66
2023/03/05 13:14:35;;;;;;;2.72;0.85;;;;;;;;;;5012039;28;20052;-66
2023/03/05 13:17:31;;;;;;;4.13;1.00;;;;;;;;;;5026962;28;20504;-65
2023/03/05 13:20:21;;;;;;;1.67;1.00;;;;;;;;;;5027113;28;20052;-66
2023/03/05 13:23:13;;;;;;;2.97;1.10;;;;;;;;;;4992119;28;20061;-66
2023/03/05 13:25:45;;;;;;;1.50;0.70;;;;;;;;;;5028563;28;20370;-66
2023/03/05 13:28:16;;;;;;;1.30;0.73;;;;;;;;;;5027551;28;20061;-66
2023/03/05 13:30:58;;;;;;;1.25;0.73;;;;;;;;;;5027947;28;20453;-66
2023/03/05 13:33:34;;;;;;;1.75;0.70;;;;;;;;;;5014376;28;20063;-66
2023/03/05 13:36:05;;;;;;;1.25;0.82;;;;;;;;;;5012662;28;20065;-66
2023/03/05 13:38:45;;;;;;;1.00;0.80;;;;;;;;;;5043869;28;20184;-66
2023/03/05 13:41:15;;;;;;;1.45;0.73;;;;;;;;;;5043777;28;20068;-67
2023/03/05 13:43:57;;;;;;;3.75;2.08;;;;;;;;;;5043807;28;20514;-66
2023/03/05 13:46:32;;;;;;;4.53;2.17;;;;;;;;;;5011193;28;20056;-66
2023/03/05 13:49:22;;;;;;;0.82;0.63;;;;;;;;;;5014396;28;20068;-66
2023/03/05 13:51:54;;;;;;;1.48;0.60;;;;;;;;;;5047565;28;20270;-66
2023/03/05 13:54:24;;;;;;;;;;;;;;;;;;5014736;28;20045;-66
2023/03/05 13:56:58;;;;;;;1.20;0.63;;;;;;;;;;5013211;28;19932;-67
2023/03/05 13:59:31;;;;;;;1.00;0.45;;;;;;;;;;5010719;28;20072;-66
2023/03/05 14:02:18;;;;;;;0.82;0.40;;;;;;;;;;5063032;28;20044;-66
2023/03/05 14:04:48;;;;;;;2.08;0.70;;;;;;;;;;5043344;28;20668;-66
2023/03/05 14:07:40;;;;;;;2.67;1.02;;;;;;;;;;5010186;28;20064;-65
2023/03/05 14:10:32;;;;;;;4.40;1.67;;;;;;;;;;5044812;28;20417;-66
2023/03/05 14:13:04;;;;;;;;;;;;;;;;;;5028284;28;20045;-66
2023/03/05 14:15:35;;;;;;;2.13;1.20;;;;;;;;;;5027520;28;19925;-66
2023/03/05 14:18:18;;;;;;;2.00;1.02;;;;;;;;;;5026946;28;20564;-66
2023/03/05 14:21:04;;;;;;;3.70;0.90;;;;;;;;;;5024980;28;20069;-67
2023/03/05 14:23:37;;;;;;;2.05;1.23;;;;;;;;;;5027431;28;20068;-65
2023/03/05 14:26:23;;;;;;;1.33;0.75;;;;;;;;;;5027017;28;20584;-66
2023/03/05 14:28:59;;;;;;;2.47;1.02;;;;;;;;;;5027197;28;20073;-66
2023/03/05 14:31:33;;;;;;;2.00;1.02;;;;;;;;;;5029688;28;20068;-66
2023/03/05 14:34:05;;;;;;;1.42;0.82;;;;;;;;;;5031087;28;20061;-66
2023/03/05 14:36:37;;;;;;;3.13;1.45;;;;;;;;;;5046363;28;20060;-66
2023/03/05 14:39:41;;;;;;;2.13;1.40;;;;;;;;;;5058567;28;20061;-66
2023/03/05 14:42:34;;;;;;;2.50;0.93;;;;;;;;;;5010749;28;20244;-66
2023/03/05 14:45:19;;;;;;;3.47;1.63;;;;;;;;;;5046937;28;20070;-66
2023/03/05 14:47:50;;;;;;;1.92;1.08;;;;;;;;;;5013280;28;20056;-67
2023/03/05 14:50:26;;;;;;;2.45;0.95;;;;;;;;;;5046904;28;20095;-67
2023/03/05 14:52:59;;;;;;;0.70;0.55;;;;;;;;;;5049580;28;20730;-67
2023/03/05 14:55:31;;;;;;;1.05;0.43;;;;;;;;;;5018008;28;20052;-68
2023/03/05 14:58:20;;;;;;;3.00;0.70;;;;;;;;;;5019060;28;20460;-67
2023/03/05 15:00:50;;;;;;;1.73;0.88;;;;;;;;;;5017362;28;20045;-67
2023/03/05 15:03:21;;;;;;;0.70;0.52;;;;;;;;;;5014376;28;20060;-66
2023/03/05 15:05:54;;;;;;;1.15;0.70;;;;;;;;;;5046690;28;20205;-67
2023/03/05 15:08:29;;;;;;;0.75;0.43;;;;;;;;;;5046109;28;20059;-66
2023/03/05 15:11:00;;;;;;;0.65;0.52;;;;;;;;;;5046634;28;20060;-69
2023/03/05 15:13:30;;;;;;;1.45;0.52;;;;;;;;;;4998017;28;20063;-66
2023/03/05 15:16:00;;;;;;;0.50;0.35;;;;;;;;;;5001135;28;20068;-66
2023/03/05 15:18:30;;;;;;;0.90;0.60;;;;;;;;;;5050450;28;20409;-66
2023/03/05 15:21:01;;;;;;;1.35;0.60;;;;;;;;;;5050701;28;20049;-67
2023/03/05 15:23:35;;;;;;;3.42;0.50;;;;;;;;;;5049493;28;20064;-66
2023/03/05 15:26:07;;;;;;;0.60;0.60;;;;;;;;;;5010511;28;20053;-67
2023/03/05 15:28:38;;;;;;;0.55;0.32;;;;;;;;;;4993566;28;20068;-67